Time;durP1;ratioP1;P1;durP2;ratioP2;P2;SDS_P1;SDS_P2;PMS_P1;PMS_P2;Temp;Humidity;BMP_temperature;BMP_pressure;BME280_temperature;BME280_humidity;BME280_pressure;Samples;Min_cycle;Max_cycle;Signal;HPM_P1;HPM_P2
2022/04/21 00:00:23;;;;;;;9.63;6.25;;;;;;;;;;5043906;28;20497;-73
2022/04/21 00:02:48;;;;;;;12.27;6.55;;;;;;;;;;5056287;28;20056;-73
2022/04/21 00:05:14;;;;;;;12.07;6.70;;;;;;;;;;5053532;28;20025;-73
2022/04/21 00:07:40;;;;;;;12.55;7.03;;;;;;;;;;5054493;28;20044;-73
2022/04/21 00:10:07;;;;;;;9.90;6.10;;;;;;;;;;5056055;28;20036;-73
2022/04/21 00:12:36;;;;;;;16.25;7.05;;;;;;;;;;5050697;28;20017;-73
2022/04/21 00:15:04;;;;;;;11.25;6.05;;;;;;;;;;5053776;28;20116;-73
2022/04/21 00:17:29;;;;;;;10.70;6.38;;;;;;;;;;5051226;28;20044;-73
2022/04/21 00:19:54;;;;;;;11.07;6.30;;;;;;;;;;5052650;28;20029;-73
2022/04/21 00:25:05;;;;;;;10.95;6.57;;;;;;;;;;5053325;28;20035;-73
2022/04/21 00:27:31;;;;;;;10.80;6.68;;;;;;;;;;5055287;28;20021;-73
2022/04/21 00:29:56;;;;;;;10.60;6.32;;;;;;;;;;5044101;28;20051;-73
2022/04/21 00:32:21;;;;;;;10.02;6.43;;;;;;;;;;5047321;28;20072;-72
2022/04/21 00:34:47;;;;;;;10.80;6.15;;;;;;;;;;5054362;28;20191;-73
2022/04/21 00:37:12;;;;;;;16.38;7.65;;;;;;;;;;5048062;28;20041;-73
2022/04/21 00:39:38;;;;;;;9.70;5.60;;;;;;;;;;5047713;28;20086;-72
2022/04/21 00:42:03;;;;;;;11.82;6.50;;;;;;;;;;5047891;28;20095;-73
2022/04/21 00:44:29;;;;;;;14.80;6.78;;;;;;;;;;5043704;28;20037;-73
2022/04/21 00:47:02;;;;;;;10.27;6.30;;;;;;;;;;5054794;28;20127;-73
2022/04/21 00:49:30;;;;;;;9.20;5.63;;;;;;;;;;5052953;28;20033;-73
2022/04/21 00:51:56;;;;;;;13.98;6.47;;;;;;;;;;5050906;28;20112;-72
2022/04/21 00:54:22;;;;;;;11.40;5.90;;;;;;;;;;5046904;28;20455;-72
2022/04/21 00:56:48;;;;;;;10.63;6.07;;;;;;;;;;5052692;28;20036;-73
2022/04/21 00:59:13;;;;;;;10.57;6.07;;;;;;;;;;5049154;28;20029;-72
2022/04/21 01:04:24;;;;;;;9.13;6.03;;;;;;;;;;5048730;28;20422;-72
2022/04/21 01:06:54;;;;;;;12.07;6.25;;;;;;;;;;5055150;28;20024;-73
2022/04/21 01:09:19;;;;;;;10.70;6.22;;;;;;;;;;5057514;28;20028;-72
2022/04/21 01:11:46;;;;;;;13.43;5.97;;;;;;;;;;5059147;28;20415;-73
2022/04/21 01:14:14;;;;;;;10.48;5.82;;;;;;;;;;5045596;28;20037;-73
2022/04/21 01:16:39;;;;;;;11.57;6.20;;;;;;;;;;5048832;28;20833;-73
2022/04/21 01:19:05;;;;;;;8.65;5.75;;;;;;;;;;5052456;28;20131;-73
2022/04/21 01:21:30;;;;;;;10.77;6.60;;;;;;;;;;5057510;28;20051;-73
2022/04/21 01:23:55;;;;;;;12.02;6.15;;;;;;;;;;5051664;28;20506;-73
2022/04/21 01:26:21;;;;;;;11.10;6.70;;;;;;;;;;5046797;28;20056;-73
2022/04/21 01:28:49;;;;;;;10.80;6.03;;;;;;;;;;5045474;28;20069;-73
2022/04/21 01:31:21;;;;;;;12.15;6.28;;;;;;;;;;5049552;28;20087;-72
2022/04/21 01:33:47;;;;;;;10.63;6.50;;;;;;;;;;5059560;28;20029;-72
2022/04/21 01:36:12;;;;;;;11.65;6.10;;;;;;;;;;5042683;28;20099;-73
2022/04/21 01:41:21;;;;;;;9.20;5.82;;;;;;;;;;5038317;28;20052;-73
2022/04/21 01:43:46;;;;;;;14.07;6.20;;;;;;;;;;5047552;28;20041;-73
2022/04/21 01:46:12;;;;;;;10.70;6.38;;;;;;;;;;5052477;28;20066;-73
2022/04/21 01:48:37;;;;;;;11.80;6.22;;;;;;;;;;5055370;28;20414;-73
2022/04/21 01:51:02;;;;;;;11.15;6.20;;;;;;;;;;5054396;28;20394;-73
2022/04/21 01:53:28;;;;;;;14.85;7.05;;;;;;;;;;5049492;28;20087;-73
2022/04/21 01:55:54;;;;;;;10.00;6.22;;;;;;;;;;5049453;28;20033;-73
2022/04/21 01:58:19;;;;;;;10.63;6.30;;;;;;;;;;5043102;28;20044;-73
2022/04/21 02:00:44;;;;;;;12.20;6.13;;;;;;;;;;5051441;28;20082;-73
2022/04/21 02:03:10;;;;;;;12.02;6.55;;;;;;;;;;5048002;28;20462;-72
2022/04/21 02:05:35;;;;;;;10.07;6.47;;;;;;;;;;5048511;28;20192;-73
2022/04/21 02:08:02;;;;;;;11.95;6.80;;;;;;;;;;5058423;28;20522;-73
2022/04/21 02:10:27;;;;;;;12.50;6.20;;;;;;;;;;5056920;28;20037;-73
2022/04/21 02:12:53;;;;;;;11.00;6.50;;;;;;;;;;5055439;28;20473;-72
2022/04/21 02:15:18;;;;;;;13.70;6.63;;;;;;;;;;5047913;28;20095;-73
2022/04/21 02:17:45;;;;;;;11.23;6.75;;;;;;;;;;5048823;28;20025;-72
2022/04/21 02:20:14;;;;;;;14.68;6.95;;;;;;;;;;5053825;28;20515;-73
2022/04/21 02:22:39;;;;;;;12.88;6.50;;;;;;;;;;5051925;28;20041;-73
2022/04/21 02:25:06;;;;;;;11.75;6.47;;;;;;;;;;5046721;28;20051;-72
2022/04/21 02:27:32;;;;;;;12.88;6.82;;;;;;;;;;5038757;28;20033;-73
2022/04/21 02:29:58;;;;;;;11.68;6.65;;;;;;;;;;5046825;28;20041;-72
2022/04/21 02:32:23;;;;;;;10.75;7.03;;;;;;;;;;5046951;28;20037;-73
2022/04/21 02:34:49;;;;;;;16.45;7.78;;;;;;;;;;5043995;28;20521;-73
2022/04/21 02:37:14;;;;;;;12.20;7.15;;;;;;;;;;5047356;28;20036;-72
2022/04/21 02:39:39;;;;;;;12.27;7.10;;;;;;;;;;5049067;28;20701;-73
2022/04/21 02:42:05;;;;;;;12.57;7.03;;;;;;;;;;5045210;28;20045;-72
2022/04/21 02:44:31;;;;;;;13.13;6.78;;;;;;;;;;5047804;28;20041;-73
2022/04/21 02:46:58;;;;;;;15.00;7.03;;;;;;;;;;5050681;28;20534;-73
2022/04/21 02:49:24;;;;;;;11.93;6.50;;;;;;;;;;5051595;28;20045;-72
2022/04/21 02:51:49;;;;;;;13.98;7.05;;;;;;;;;;5052401;28;20036;-72
2022/04/21 02:59:43;;;;;;;13.63;7.00;;;;;;;;;;5043848;28;20135;-72
2022/04/21 03:02:08;;;;;;;12.85;7.40;;;;;;;;;;5047352;28;20087;-72
2022/04/21 03:04:33;;;;;;;12.40;7.40;;;;;;;;;;5046039;28;20044;-73
2022/04/21 03:06:59;;;;;;;11.30;7.00;;;;;;;;;;5041855;28;20074;-72
2022/04/21 03:09:24;;;;;;;14.77;7.28;;;;;;;;;;5047721;28;20024;-73
2022/04/21 03:11:49;;;;;;;13.23;7.45;;;;;;;;;;5052533;28;20566;-73
2022/04/21 03:14:15;;;;;;;11.55;7.03;;;;;;;;;;5043604;28;20028;-72
2022/04/21 03:16:41;;;;;;;10.95;6.65;;;;;;;;;;5042710;28;20052;-72
2022/04/21 03:19:06;;;;;;;14.95;7.25;;;;;;;;;;5050074;28;20043;-73
2022/04/21 03:24:21;;;;;;;17.05;7.90;;;;;;;;;;5048253;28;20071;-73
2022/04/21 03:26:52;;;;;;;13.57;7.15;;;;;;;;;;5049584;28;20052;-72
2022/04/21 03:29:18;;;;;;;13.98;7.45;;;;;;;;;;5050711;28;20029;-73
2022/04/21 03:31:44;;;;;;;17.25;7.90;;;;;;;;;;5048177;28;20033;-72
2022/04/21 03:34:12;;;;;;;13.18;7.38;;;;;;;;;;5046610;28;20025;-72
2022/04/21 03:36:38;;;;;;;14.75;7.47;;;;;;;;;;5044027;28;20037;-73
2022/04/21 03:39:03;;;;;;;15.18;7.70;;;;;;;;;;5050154;28;20033;-72
2022/04/21 03:41:28;;;;;;;12.13;7.35;;;;;;;;;;5048406;28;20037;-72
2022/04/21 03:43:54;;;;;;;14.85;7.85;;;;;;;;;;5044014;28;20045;-73
2022/04/21 03:46:19;;;;;;;13.35;7.97;;;;;;;;;;5046612;28;20048;-73
2022/04/21 03:48:44;;;;;;;13.35;7.68;;;;;;;;;;5051307;28;20077;-72
2022/04/21 03:51:10;;;;;;;12.32;7.50;;;;;;;;;;5042461;28;20055;-72
2022/04/21 03:53:35;;;;;;;16.60;7.32;;;;;;;;;;5046625;28;20044;-73
2022/04/21 03:56:01;;;;;;;13.52;7.68;;;;;;;;;;5048425;28;20119;-73
2022/04/21 03:58:26;;;;;;;16.17;8.10;;;;;;;;;;5049138;28;20540;-72
2022/04/21 04:00:51;;;;;;;12.50;7.55;;;;;;;;;;5046898;28;20119;-72
2022/04/21 04:03:16;;;;;;;13.02;7.40;;;;;;;;;;5045963;28;21199;-72
2022/04/21 04:05:42;;;;;;;12.55;7.53;;;;;;;;;;5047462;28;20034;-72
2022/04/21 04:10:52;;;;;;;11.35;7.22;;;;;;;;;;5046311;28;21013;-73
2022/04/21 04:13:21;;;;;;;14.77;7.38;;;;;;;;;;5046172;28;20044;-72
2022/04/21 04:15:50;;;;;;;15.10;8.15;;;;;;;;;;5045775;28;20025;-72
2022/04/21 04:18:16;;;;;;;12.73;7.57;;;;;;;;;;5044181;28;20014;-72
2022/04/21 04:20:42;;;;;;;16.00;8.85;;;;;;;;;;5041797;28;20112;-72
2022/04/21 04:23:07;;;;;;;15.85;8.25;;;;;;;;;;5044117;28;20051;-73
2022/04/21 04:25:33;;;;;;;14.90;7.65;;;;;;;;;;5044682;28;20029;-72
2022/04/21 04:27:58;;;;;;;15.32;7.97;;;;;;;;;;5050229;28;20021;-72
2022/04/21 04:30:24;;;;;;;13.65;7.80;;;;;;;;;;5039048;28;20396;-72
2022/04/21 04:32:49;;;;;;;11.98;7.22;;;;;;;;;;5049323;28;20033;-72
2022/04/21 04:35:14;;;;;;;13.05;7.57;;;;;;;;;;5049723;28;20628;-72
2022/04/21 04:37:40;;;;;;;23.83;9.02;;;;;;;;;;5045023;28;20044;-72
2022/04/21 04:40:06;;;;;;;13.48;7.18;;;;;;;;;;5037535;28;20037;-73
2022/04/21 04:42:31;;;;;;;14.73;7.60;;;;;;;;;;5045843;28;20033;-72
2022/04/21 04:47:41;;;;;;;13.52;7.88;;;;;;;;;;5044912;28;20044;-72
2022/04/21 04:50:07;;;;;;;12.93;7.53;;;;;;;;;;5052963;28;20045;-73
2022/04/21 04:52:33;;;;;;;14.70;7.65;;;;;;;;;;5049164;28;20041;-72
2022/04/21 04:54:58;;;;;;;16.70;8.00;;;;;;;;;;5051715;28;20024;-72
2022/04/21 04:57:24;;;;;;;14.88;8.45;;;;;;;;;;5050524;28;20104;-72
2022/04/21 04:59:49;;;;;;;12.80;6.60;;;;;;;;;;5047174;28;20033;-73
2022/04/21 05:02:14;;;;;;;13.25;7.82;;;;;;;;;;5044572;28;20086;-73
2022/04/21 05:04:40;;;;;;;12.82;8.07;;;;;;;;;;5049180;28;20069;-72
2022/04/21 05:07:05;;;;;;;13.38;7.38;;;;;;;;;;5055013;28;20132;-73
2022/04/21 05:09:31;;;;;;;13.50;6.43;;;;;;;;;;5043867;28;20038;-72
2022/04/21 05:11:57;;;;;;;14.32;7.72;;;;;;;;;;5049023;28;20065;-72
2022/04/21 05:14:23;;;;;;;15.32;8.35;;;;;;;;;;5044881;28;20047;-72
2022/04/21 05:16:50;;;;;;;16.52;8.15;;;;;;;;;;5047699;28;20048;-72
2022/04/21 05:19:19;;;;;;;12.75;7.63;;;;;;;;;;5050234;28;20060;-72
2022/04/21 05:21:45;;;;;;;13.35;7.85;;;;;;;;;;5057782;28;20028;-72
2022/04/21 05:24:11;;;;;;;16.65;7.93;;;;;;;;;;5047127;28;20098;-72
2022/04/21 05:26:40;;;;;;;13.18;7.38;;;;;;;;;;5056403;28;20028;-72
2022/04/21 05:32:01;;;;;;;15.15;7.72;;;;;;;;;;5046315;28;20180;-72
2022/04/21 05:34:28;;;;;;;22.77;8.25;;;;;;;;;;5046428;28;20037;-73
2022/04/21 05:36:54;;;;;;;14.32;8.40;;;;;;;;;;5044436;28;20021;-72
2022/04/21 05:39:20;;;;;;;15.50;7.57;;;;;;;;;;5049990;28;20053;-73
2022/04/21 05:41:46;;;;;;;15.95;8.10;;;;;;;;;;5044489;28;20474;-72
2022/04/21 05:44:12;;;;;;;16.40;8.32;;;;;;;;;;5042734;28;20033;-72
2022/04/21 05:46:38;;;;;;;18.67;8.52;;;;;;;;;;5049801;28;20091;-73
2022/04/21 05:49:04;;;;;;;13.10;7.82;;;;;;;;;;5053179;28;20024;-73
2022/04/21 05:51:30;;;;;;;13.63;7.50;;;;;;;;;;5046133;28;20012;-73
2022/04/21 05:53:58;;;;;;;13.63;7.50;;;;;;;;;;5043603;28;20383;-73
2022/04/21 05:56:24;;;;;;;14.38;7.68;;;;;;;;;;5047225;28;20047;-73
2022/04/21 05:58:50;;;;;;;19.67;8.27;;;;;;;;;;5042995;28;20025;-77
2022/04/21 06:01:15;;;;;;;17.27;7.90;;;;;;;;;;5040416;28;20106;-77
2022/04/21 06:03:41;;;;;;;13.60;8.13;;;;;;;;;;5030055;28;20041;-75
2022/04/21 06:06:09;;;;;;;16.55;8.00;;;;;;;;;;5034671;28;20067;-74
2022/04/21 06:08:34;;;;;;;12.55;7.32;;;;;;;;;;5037709;28;20111;-76
2022/04/21 06:11:00;;;;;;;13.48;8.25;;;;;;;;;;5043407;28;20041;-79
2022/04/21 06:13:26;;;;;;;17.50;7.65;;;;;;;;;;5039097;28;20048;-78
2022/04/21 06:15:51;;;;;;;12.65;7.40;;;;;;;;;;5037462;28;20458;-76
2022/04/21 06:18:17;;;;;;;13.45;7.68;;;;;;;;;;5033153;28;20013;-76
2022/04/21 06:20:42;;;;;;;10.68;6.82;;;;;;;;;;5038659;28;20687;-77
2022/04/21 06:23:08;;;;;;;16.77;7.47;;;;;;;;;;5042277;28;20560;-76
2022/04/21 06:25:34;;;;;;;16.52;8.35;;;;;;;;;;5038510;28;20102;-75
2022/04/21 06:27:59;;;;;;;11.55;7.30;;;;;;;;;;5039983;28;20727;-70
2022/04/21 06:30:24;;;;;;;12.02;7.53;;;;;;;;;;5040508;28;20052;-74
2022/04/21 06:32:50;;;;;;;17.63;7.38;;;;;;;;;;5038865;28;20955;-73
2022/04/21 06:35:15;;;;;;;13.35;7.75;;;;;;;;;;5039121;28;20033;-73
2022/04/21 06:37:43;;;;;;;11.85;7.30;;;;;;;;;;5035851;28;20351;-73
2022/04/21 06:40:08;;;;;;;13.38;7.43;;;;;;;;;;5020080;28;20041;-73
2022/04/21 06:42:37;;;;;;;13.50;8.02;;;;;;;;;;5036714;28;20037;-73
2022/04/21 06:48:03;;;;;;;13.32;7.18;;;;;;;;;;5043102;28;20032;-73
2022/04/21 06:50:36;;;;;;;10.98;6.95;;;;;;;;;;5035367;28;20134;-73
2022/04/21 06:53:06;;;;;;;14.32;7.10;;;;;;;;;;5040413;28;20403;-73
2022/04/21 06:55:32;;;;;;;14.60;7.18;;;;;;;;;;5038757;28;20029;-73
2022/04/21 06:57:58;;;;;;;11.65;7.20;;;;;;;;;;5037726;28;20041;-73
2022/04/21 07:00:26;;;;;;;13.98;7.45;;;;;;;;;;5033989;28;20045;-73
2022/04/21 07:02:53;;;;;;;13.10;7.35;;;;;;;;;;5035769;28;20059;-70
2022/04/21 07:05:19;;;;;;;14.93;7.65;;;;;;;;;;5030679;28;20113;-71
2022/04/21 07:07:45;;;;;;;13.73;7.07;;;;;;;;;;5041324;28;20042;-70
2022/04/21 07:10:11;;;;;;;10.90;6.43;;;;;;;;;;5025427;28;20521;-69
2022/04/21 07:12:37;;;;;;;9.73;6.50;;;;;;;;;;5034517;28;20032;-71
2022/04/21 07:15:08;;;;;;;13.40;6.93;;;;;;;;;;5038302;28;20025;-72
2022/04/21 07:17:35;;;;;;;10.60;6.78;;;;;;;;;;4987451;28;20095;-73
2022/04/21 07:20:03;;;;;;;9.43;6.45;;;;;;;;;;4929687;28;20128;-72
2022/04/21 07:22:29;;;;;;;12.90;6.68;;;;;;;;;;4972278;28;20048;-72
2022/04/21 07:24:58;;;;;;;10.10;5.95;;;;;;;;;;5039223;28;20040;-74
2022/04/21 07:27:24;;;;;;;9.65;6.10;;;;;;;;;;5028648;28;20045;-74
2022/04/21 07:29:50;;;;;;;9.05;5.80;;;;;;;;;;5033182;28;20095;-74
2022/04/21 07:32:16;;;;;;;11.65;6.07;;;;;;;;;;5037869;28;20032;-71
2022/04/21 07:34:42;;;;;;;9.23;5.47;;;;;;;;;;5035378;28;20040;-70
2022/04/21 07:37:10;;;;;;;7.88;5.65;;;;;;;;;;5039469;28;20029;-70
2022/04/21 07:39:37;;;;;;;7.95;5.63;;;;;;;;;;5039078;28;20037;-71
2022/04/21 07:42:06;;;;;;;8.98;4.78;;;;;;;;;;5023954;28;20021;-72
2022/04/21 07:44:31;;;;;;;8.38;5.43;;;;;;;;;;5030307;28;20057;-71
2022/04/21 07:46:57;;;;;;;9.45;5.82;;;;;;;;;;5027515;28;20126;-71
2022/04/21 07:54:51;;;;;;;8.70;5.57;;;;;;;;;;5035760;28;20125;-75
2022/04/21 07:57:17;;;;;;;10.13;5.85;;;;;;;;;;5027081;28;21181;-74
2022/04/21 07:59:42;;;;;;;9.38;5.80;;;;;;;;;;5030061;28;20154;-71
2022/04/21 08:02:08;;;;;;;12.07;6.13;;;;;;;;;;5025897;28;20037;-72
2022/04/21 08:04:34;;;;;;;9.70;6.38;;;;;;;;;;5033916;28;20045;-75
2022/04/21 08:07:00;;;;;;;8.77;5.78;;;;;;;;;;5026981;28;20684;-75
2022/04/21 08:09:25;;;;;;;9.38;5.82;;;;;;;;;;5030755;28;20045;-73
2022/04/21 08:11:51;;;;;;;8.80;5.90;;;;;;;;;;5035037;28;20413;-74
2022/04/21 08:14:17;;;;;;;11.00;6.38;;;;;;;;;;5039874;28;20092;-73
2022/04/21 08:16:43;;;;;;;10.55;6.05;;;;;;;;;;5041572;28;20510;-72
2022/04/21 08:19:12;;;;;;;8.70;5.82;;;;;;;;;;5028718;28;20051;-74
2022/04/21 08:21:37;;;;;;;9.43;6.38;;;;;;;;;;5042523;28;20103;-73
2022/04/21 08:32:33;;;;;;;10.60;6.38;;;;;;;;;;5034006;28;20052;-74
2022/04/21 08:35:03;;;;;;;11.88;6.15;;;;;;;;;;5041220;28;20043;-75
2022/04/21 08:37:28;;;;;;;9.25;5.68;;;;;;;;;;5040151;28;20076;-74
2022/04/21 08:39:55;;;;;;;10.27;5.90;;;;;;;;;;5037162;28;20068;-73
2022/04/21 08:42:22;;;;;;;8.85;5.93;;;;;;;;;;5039228;28;20048;-73
2022/04/21 08:44:49;;;;;;;9.32;5.53;;;;;;;;;;5040678;28;20064;-72
2022/04/21 08:47:18;;;;;;;8.85;5.75;;;;;;;;;;5030607;28;20091;-72
2022/04/21 08:49:47;;;;;;;9.07;5.50;;;;;;;;;;5031549;28;20040;-72
2022/04/21 08:52:14;;;;;;;7.57;5.00;;;;;;;;;;5028069;28;20048;-74
2022/04/21 08:54:40;;;;;;;9.05;5.40;;;;;;;;;;5037044;28;20048;-76
2022/04/21 08:57:08;;;;;;;9.07;5.25;;;;;;;;;;5039532;28;20029;-77
2022/04/21 08:59:34;;;;;;;7.35;4.70;;;;;;;;;;5037066;28;20658;-77
2022/04/21 09:02:00;;;;;;;9.25;5.00;;;;;;;;;;5034610;28;20045;-75
2022/04/21 09:04:25;;;;;;;7.45;5.40;;;;;;;;;;5039988;28;20120;-76
2022/04/21 09:06:50;;;;;;;6.72;4.60;;;;;;;;;;5032064;28;20045;-76
2022/04/21 09:09:21;;;;;;;9.43;5.57;;;;;;;;;;5039425;28;20992;-76
2022/04/21 09:11:50;;;;;;;11.25;4.72;;;;;;;;;;5034475;28;20053;-74
2022/04/21 09:14:17;;;;;;;8.27;4.78;;;;;;;;;;5039371;28;20037;-75
2022/04/21 09:16:43;;;;;;;7.40;4.28;;;;;;;;;;5038727;28;20044;-75
2022/04/21 09:19:08;;;;;;;8.27;4.50;;;;;;;;;;5030443;28;20049;-74
2022/04/21 09:21:38;;;;;;;6.70;4.43;;;;;;;;;;5036633;28;20045;-74
2022/04/21 09:24:19;;;;;;;11.73;5.05;;;;;;;;;;5031369;28;20043;-75
2022/04/21 09:26:45;;;;;;;13.73;7.28;;;;;;;;;;5041929;28;20094;-73
2022/04/21 09:29:21;;;;;;;7.40;4.53;;;;;;;;;;5031641;28;20049;-76
2022/04/21 09:31:46;;;;;;;6.32;4.57;;;;;;;;;;5032944;28;20702;-77
2022/04/21 09:34:12;;;;;;;7.75;4.35;;;;;;;;;;5038734;28;20528;-73
2022/04/21 09:36:38;;;;;;;8.18;4.70;;;;;;;;;;5031980;28;20049;-77
2022/04/21 09:39:03;;;;;;;6.85;4.30;;;;;;;;;;5033248;28;20025;-77
2022/04/21 09:41:29;;;;;;;6.45;4.03;;;;;;;;;;5027399;28;20517;-76
2022/04/21 09:46:07;;;;;;;6.72;3.70;;;;;;;;;;5029908;28;20099;-77
2022/04/21 09:46:56;;;;;;;7.15;4.40;;;;;;;;;;5035520;28;20041;-75
2022/04/21 09:49:42;;;;;;;7.85;3.92;;;;;;;;;;5037577;28;20045;-77
2022/04/21 09:52:07;;;;;;;5.65;3.50;;;;;;;;;;5039206;28;20096;-75
2022/04/21 09:54:36;;;;;;;9.55;4.20;;;;;;;;;;5042359;28;20719;-74
2022/04/21 09:57:05;;;;;;;6.20;4.20;;;;;;;;;;5043217;28;20228;-73
2022/04/21 09:59:35;;;;;;;10.38;3.60;;;;;;;;;;5036073;28;20131;-71
2022/04/21 10:02:02;;;;;;;8.02;3.53;;;;;;;;;;5036441;28;20040;-73
2022/04/21 10:04:29;;;;;;;9.25;4.18;;;;;;;;;;5032286;28;20052;-73
2022/04/21 10:06:56;;;;;;;6.95;4.20;;;;;;;;;;5029748;28;20411;-72
2022/04/21 10:09:23;;;;;;;5.93;3.47;;;;;;;;;;5035425;28;20033;-72
2022/04/21 10:11:50;;;;;;;5.25;3.40;;;;;;;;;;5041298;28;20036;-73
2022/04/21 10:14:17;;;;;;;8.63;3.67;;;;;;;;;;5034863;28;20039;-73
2022/04/21 10:16:44;;;;;;;7.20;3.55;;;;;;;;;;5033792;28;20038;-73
2022/04/21 10:19:11;;;;;;;5.13;3.47;;;;;;;;;;5033570;28;20486;-78
2022/04/21 10:21:49;;;;;;;9.20;3.60;;;;;;;;;;5035799;28;20045;-75
2022/04/21 10:24:25;;;;;;;5.28;3.10;;;;;;;;;;5036238;28;20040;-75
2022/04/21 10:26:51;;;;;;;4.70;3.40;;;;;;;;;;5041547;28;20028;-75
2022/04/21 10:29:20;;;;;;;6.20;3.30;;;;;;;;;;5043604;28;20044;-75
2022/04/21 10:32:05;;;;;;;4.95;3.15;;;;;;;;;;5029936;28;20659;-73
2022/04/21 10:34:40;;;;;;;4.88;2.70;;;;;;;;;;5045757;28;20033;-73
2022/04/21 10:37:12;;;;;;;5.45;2.95;;;;;;;;;;5025796;28;20045;-77
2022/04/21 10:39:38;;;;;;;7.75;2.80;;;;;;;;;;5030688;28;20297;-75
2022/04/21 10:42:17;;;;;;;5.53;3.20;;;;;;;;;;5045361;28;20549;-75
2022/04/21 10:44:53;;;;;;;7.38;3.40;;;;;;;;;;5045113;28;20082;-75
2022/04/21 10:47:38;;;;;;;4.70;3.38;;;;;;;;;;5036865;28;20549;-76
2022/04/21 10:50:12;;;;;;;4.50;3.25;;;;;;;;;;5026364;28;20099;-81
2022/04/21 10:57:57;;;;;;;4.32;3.15;;;;;;;;;;5033684;28;20426;-80
2022/04/21 11:00:26;;;;;;;5.15;3.22;;;;;;;;;;5032333;28;20487;-80
2022/04/21 11:03:10;;;;;;;7.30;3.67;;;;;;;;;;5025476;28;20538;-80
2022/04/21 11:05:38;;;;;;;5.25;3.80;;;;;;;;;;5028057;28;20114;-79
2022/04/21 11:08:10;;;;;;;6.75;4.05;;;;;;;;;;5028730;28;20065;-80
2022/04/21 11:10:38;;;;;;;4.78;3.80;;;;;;;;;;5042004;28;20035;-80
2022/04/21 11:13:17;;;;;;;6.03;4.20;;;;;;;;;;5039976;28;20521;-80
2022/04/21 11:15:47;;;;;;;10.40;4.30;;;;;;;;;;5029934;28;20041;-80
2022/04/21 11:18:15;;;;;;;10.93;4.18;;;;;;;;;;5025405;28;20087;-80
2022/04/21 11:20:47;;;;;;;5.90;4.18;;;;;;;;;;5024804;28;20048;-80
2022/04/21 11:23:24;;;;;;;7.28;4.60;;;;;;;;;;5037393;28;20079;-79
2022/04/21 11:25:51;;;;;;;6.95;4.30;;;;;;;;;;5040690;28;20055;-76
2022/04/21 11:28:26;;;;;;;6.40;4.60;;;;;;;;;;5030878;28;20052;-75
2022/04/21 11:30:58;;;;;;;8.65;4.28;;;;;;;;;;5028585;28;20036;-75
2022/04/21 11:33:24;;;;;;;7.65;4.50;;;;;;;;;;5024910;28;20036;-74
2022/04/21 11:35:49;;;;;;;5.93;4.25;;;;;;;;;;5037971;28;20024;-74
2022/04/21 11:38:14;;;;;;;7.55;4.63;;;;;;;;;;5035207;28;20029;-82
2022/04/21 11:40:40;;;;;;;8.63;4.72;;;;;;;;;;5038166;28;20033;-82
2022/04/21 11:43:17;;;;;;;8.98;4.57;;;;;;;;;;5040621;28;20041;-82
2022/04/21 11:45:54;;;;;;;8.20;4.80;;;;;;;;;;5038266;28;20025;-82
2022/04/21 11:48:20;;;;;;;5.70;4.18;;;;;;;;;;5036773;28;20574;-75
2022/04/21 11:50:47;;;;;;;9.77;4.65;;;;;;;;;;5043310;28;20021;-75
2022/04/21 11:53:18;;;;;;;6.57;4.57;;;;;;;;;;5028651;28;20037;-73
2022/04/21 11:55:44;;;;;;;12.23;4.85;;;;;;;;;;5045265;28;20040;-74
2022/04/21 11:58:10;;;;;;;5.78;4.20;;;;;;;;;;5043406;28;20037;-76
2022/04/21 12:08:49;;;;;;;9.98;4.70;;;;;;;;;;5036120;28;20177;-76
2022/04/21 12:11:17;;;;;;;9.43;4.70;;;;;;;;;;5026796;28;20085;-76
2022/04/21 12:13:44;;;;;;;7.90;4.97;;;;;;;;;;5041406;28;20102;-76
2022/04/21 12:16:47;;;;;;;8.75;5.18;;;;;;;;;;5047349;28;20037;-78
2022/04/21 12:19:26;;;;;;;7.15;4.60;;;;;;;;;;5049084;28;20021;-79
2022/04/21 12:21:56;;;;;;;7.55;4.32;;;;;;;;;;5047967;28;20903;-79
2022/04/21 12:24:31;;;;;;;10.82;4.70;;;;;;;;;;5048494;28;20095;-79
2022/04/21 12:26:57;;;;;;;9.88;5.60;;;;;;;;;;5047514;28;20059;-79
2022/04/21 12:29:23;;;;;;;7.30;4.80;;;;;;;;;;5047551;28;20048;-78
2022/04/21 12:31:56;;;;;;;8.82;5.10;;;;;;;;;;5032538;28;20050;-78
2022/04/21 12:34:26;;;;;;;8.00;4.65;;;;;;;;;;5048765;28;20072;-80
2022/04/21 12:37:00;;;;;;;8.93;4.13;;;;;;;;;;5045105;28;20045;-80
2022/04/21 12:39:27;;;;;;;8.70;4.82;;;;;;;;;;5032680;28;20114;-75
2022/04/21 12:41:53;;;;;;;9.88;4.28;;;;;;;;;;5036867;28;20033;-75
2022/04/21 12:44:23;;;;;;;6.53;4.40;;;;;;;;;;5033485;28;20041;-75
2022/04/21 12:47:12;;;;;;;8.63;4.90;;;;;;;;;;5043831;28;20098;-75
2022/04/21 12:50:20;;;;;;;6.63;4.28;;;;;;;;;;5042618;28;20542;-76
2022/04/21 12:52:48;;;;;;;8.32;4.35;;;;;;;;;;5036466;28;20456;-78
2022/04/21 12:55:16;;;;;;;6.65;3.90;;;;;;;;;;5032434;28;20029;-75
2022/04/21 12:57:57;;;;;;;6.07;4.22;;;;;;;;;;5036055;28;20780;-78
2022/04/21 13:00:22;;;;;;;8.20;4.32;;;;;;;;;;5038908;28;20040;-76
2022/04/21 13:02:47;;;;;;;8.20;4.65;;;;;;;;;;5031967;28;20060;-76
2022/04/21 13:05:13;;;;;;;8.85;4.95;;;;;;;;;;5030364;28;20131;-76
2022/04/21 13:07:38;;;;;;;9.38;4.28;;;;;;;;;;5047823;28;20029;-75
2022/04/21 13:10:04;;;;;;;7.03;4.10;;;;;;;;;;5041316;28;20037;-74
2022/04/21 13:12:30;;;;;;;5.18;4.35;;;;;;;;;;5032371;28;20033;-74
2022/04/21 13:14:55;;;;;;;7.10;4.80;;;;;;;;;;5039832;28;20132;-74
2022/04/21 13:17:21;;;;;;;7.03;4.10;;;;;;;;;;5046718;28;20041;-77
2022/04/21 13:19:46;;;;;;;7.65;4.13;;;;;;;;;;5046394;28;20025;-79
2022/04/21 13:22:11;;;;;;;5.55;3.78;;;;;;;;;;5061037;28;20545;-78
2022/04/21 13:24:37;;;;;;;6.65;4.10;;;;;;;;;;5048397;28;20403;-77
2022/04/21 13:27:03;;;;;;;5.45;3.65;;;;;;;;;;5033977;28;20026;-75
2022/04/21 13:29:29;;;;;;;6.60;4.18;;;;;;;;;;5046881;28;20036;-76
2022/04/21 13:34:38;;;;;;;7.45;4.30;;;;;;;;;;5036073;28;20044;-75
2022/04/21 13:37:04;;;;;;;9.95;3.90;;;;;;;;;;5032863;28;20034;-78
2022/04/21 13:39:30;;;;;;;6.65;3.90;;;;;;;;;;5028023;28;20040;-78
2022/04/21 13:41:56;;;;;;;6.18;4.10;;;;;;;;;;5034995;28;20487;-73
2022/04/21 13:44:21;;;;;;;6.32;4.10;;;;;;;;;;5043795;28;20101;-75
2022/04/21 13:46:46;;;;;;;5.95;3.70;;;;;;;;;;5043860;28;20033;-73
2022/04/21 13:49:12;;;;;;;4.93;3.78;;;;;;;;;;5038790;28;20041;-73
2022/04/21 13:51:38;;;;;;;6.50;3.50;;;;;;;;;;5046579;28;20048;-71
2022/04/21 13:54:03;;;;;;;5.53;3.80;;;;;;;;;;5046869;28;20037;-78
2022/04/21 13:56:29;;;;;;;5.55;3.97;;;;;;;;;;5039494;28;20014;-75
2022/04/21 13:58:55;;;;;;;9.05;4.78;;;;;;;;;;5032436;28;20052;-75
2022/04/21 14:01:21;;;;;;;8.95;4.60;;;;;;;;;;5033456;28;20041;-75
2022/04/21 14:03:48;;;;;;;7.07;4.32;;;;;;;;;;5029196;28;20033;-75
2022/04/21 14:06:13;;;;;;;6.32;4.50;;;;;;;;;;5030320;28;20017;-72
2022/04/21 14:08:44;;;;;;;6.20;3.70;;;;;;;;;;5036856;28;20033;-74
2022/04/21 14:11:10;;;;;;;8.55;3.65;;;;;;;;;;5029008;28;20033;-72
2022/04/21 14:13:35;;;;;;;7.95;4.30;;;;;;;;;;5037890;28;20056;-74
2022/04/21 14:16:01;;;;;;;6.32;3.72;;;;;;;;;;5044063;28;20037;-73
2022/04/21 14:18:27;;;;;;;5.30;3.83;;;;;;;;;;5046453;28;20037;-73
2022/04/21 14:20:52;;;;;;;7.20;3.65;;;;;;;;;;5031570;28;20036;-74
2022/04/21 14:23:19;;;;;;;4.78;4.07;;;;;;;;;;5031126;28;20044;-74
2022/04/21 14:25:45;;;;;;;10.63;3.40;;;;;;;;;;5034409;28;20032;-75
2022/04/21 14:28:11;;;;;;;4.60;3.47;;;;;;;;;;5042924;28;20049;-74
2022/04/21 14:30:36;;;;;;;7.40;3.58;;;;;;;;;;5041707;28;20037;-75
2022/04/21 14:33:02;;;;;;;4.82;3.65;;;;;;;;;;5031559;28;20028;-75
2022/04/21 14:35:27;;;;;;;8.48;3.70;;;;;;;;;;5048181;28;20021;-75
2022/04/21 14:46:05;;;;;;;4.93;3.22;;;;;;;;;;5033358;28;20144;-75
2022/04/21 14:48:31;;;;;;;6.93;3.13;;;;;;;;;;5044155;28;20105;-74
2022/04/21 14:50:56;;;;;;;6.88;2.80;;;;;;;;;;5034176;28;20112;-75
2022/04/21 14:53:25;;;;;;;10.48;2.95;;;;;;;;;;5033768;28;20033;-74
2022/04/21 14:55:52;;;;;;;3.67;2.70;;;;;;;;;;5038579;28;20037;-75
2022/04/21 14:58:20;;;;;;;6.88;3.53;;;;;;;;;;5036965;28;20029;-74
2022/04/21 15:00:45;;;;;;;6.70;3.08;;;;;;;;;;5047868;28;20037;-75
2022/04/21 15:03:14;;;;;;;5.43;3.17;;;;;;;;;;5031283;28;20044;-75
2022/04/21 15:05:40;;;;;;;7.45;3.00;;;;;;;;;;5038181;28;20037;-74
2022/04/21 15:08:09;;;;;;;6.40;3.88;;;;;;;;;;5023992;28;20045;-74
2022/04/21 15:10:37;;;;;;;3.65;2.30;;;;;;;;;;5028210;28;20049;-75
2022/04/21 15:13:06;;;;;;;5.38;2.85;;;;;;;;;;5034995;28;20036;-74
2022/04/21 15:15:32;;;;;;;4.25;2.28;;;;;;;;;;5044251;28;20037;-74
2022/04/21 15:17:57;;;;;;;4.05;2.45;;;;;;;;;;5037148;28;20037;-75
2022/04/21 15:20:23;;;;;;;3.78;2.30;;;;;;;;;;5030075;28;20025;-75
2022/04/21 15:22:48;;;;;;;7.90;2.67;;;;;;;;;;5037991;28;20040;-74
2022/04/21 15:25:14;;;;;;;4.45;2.70;;;;;;;;;;5027677;28;20033;-74
2022/04/21 15:27:39;;;;;;;9.00;2.90;;;;;;;;;;5035041;28;20087;-74
2022/04/21 15:30:06;;;;;;;4.57;2.85;;;;;;;;;;5038020;28;20029;-74
2022/04/21 15:32:31;;;;;;;4.80;3.10;;;;;;;;;;5028044;28;20018;-74
2022/04/21 15:34:57;;;;;;;6.20;3.28;;;;;;;;;;5034869;28;20090;-74
2022/04/21 15:37:22;;;;;;;7.28;2.95;;;;;;;;;;5034912;28;20124;-75
2022/04/21 15:39:49;;;;;;;5.18;2.90;;;;;;;;;;5031828;28;20048;-75
2022/04/21 15:42:14;;;;;;;5.18;2.65;;;;;;;;;;5037437;28;20446;-74